Disclaimer

Please do not use the information listed here in-flight or in-navigation, as they are not provided to us by the airports but are provided by volunteers, so they might be outdated.

Search


Regions


Airport information page

Radio informations:
INFO - 121.7 MHz

Airport informations:
Latitude: 26° 31' 55.20" N
Longitude: 054° 49' 29.45" E
Elevation: 67 feet - 20 meters
Operating hours: From sunrise to sunset (SR-SS)
Operating agency: Civil government, landing fees and diplomatic clearance may be required
Timezone: UTC+3:30
Fuel: N/A

Runway information:
08/26 - 8203 x 148 feet< - >2500 x 45 meters

Recent METARs:
OIBL 211800Z 30004KT CAVOK 23/14 Q1015
OIBL 211800Z 30004KT CAVOK 23/14 Q1015
OIBL 211800Z 30004KT CAVOK 23/14 Q1015

Airport on the map: